createdAt,value
2023-04-15T00:01:19.362Z,100586.03
2023-04-15T00:03:48.747Z,100587.78
2023-04-15T00:06:16.537Z,100579.09
2023-04-15T00:08:43.831Z,100579.97
2023-04-15T00:11:10.768Z,100580.00
2023-04-15T00:13:39.541Z,100580.88
2023-04-15T00:16:09.751Z,100577.38
2023-04-15T00:18:37.481Z,100582.59
2023-04-15T00:21:05.465Z,100578.28
2023-04-15T00:23:32.465Z,100579.19
2023-04-15T00:26:00.568Z,100579.19
2023-04-15T00:28:28.194Z,100580.91
2023-04-15T00:30:55.400Z,100583.53
2023-04-15T00:33:22.657Z,100582.66
2023-04-15T00:35:49.912Z,100582.69
2023-04-15T00:38:18.097Z,100577.47
2023-04-15T00:40:45.776Z,100585.28
2023-04-15T00:43:13.120Z,100587.91
2023-04-15T00:45:40.047Z,100587.03
2023-04-15T00:48:09.544Z,100584.41
2023-04-15T00:50:37.068Z,100584.41
2023-04-15T00:53:03.864Z,100577.47
2023-04-15T00:55:31.829Z,100580.94
2023-04-15T00:57:59.151Z,100587.00
2023-04-15T01:00:26.940Z,100581.84
2023-04-15T01:02:54.026Z,100587.00
2023-04-15T01:05:21.070Z,100587.88
2023-04-15T01:07:48.803Z,100587.00
2023-04-15T01:10:16.123Z,100591.34
2023-04-15T01:12:43.284Z,100591.34
2023-04-15T01:15:11.095Z,100586.16
2023-04-15T01:17:39.952Z,100591.34
2023-04-15T01:20:10.083Z,100579.22
2023-04-15T01:22:37.185Z,100590.50
2023-04-15T01:25:11.500Z,100579.22
2023-04-15T01:27:42.612Z,100584.41
2023-04-15T01:30:11.536Z,100589.59
2023-04-15T01:32:39.206Z,100577.50
2023-04-15T01:35:06.434Z,100587.88
2023-04-15T01:37:34.038Z,100580.94
2023-04-15T01:40:01.329Z,100586.16
2023-04-15T01:42:29.034Z,100581.81
2023-04-15T01:44:56.322Z,100581.81
2023-04-15T01:47:23.490Z,100586.16
2023-04-15T01:49:50.480Z,100579.22
2023-04-15T01:52:18.368Z,100583.56
2023-04-15T01:54:45.776Z,100583.56
2023-04-15T01:57:13.272Z,100587.00
2023-04-15T01:59:42.266Z,100592.22
2023-04-15T02:02:10.822Z,100591.34
2023-04-15T02:04:38.171Z,100582.69
2023-04-15T02:07:05.091Z,100585.28
2023-04-15T02:09:32.106Z,100585.28
2023-04-15T02:12:00.777Z,100586.16
2023-04-15T02:14:28.130Z,100590.47
2023-04-15T02:16:55.645Z,100591.34
2023-04-15T02:19:22.865Z,100597.38
2023-04-15T02:21:49.899Z,100599.97
2023-04-15T02:24:16.794Z,100601.72
2023-04-15T02:26:44.197Z,100601.72
2023-04-15T02:29:11.108Z,100595.63
2023-04-15T02:31:40.624Z,100599.09
2023-04-15T02:34:08.302Z,100596.53
2023-04-15T02:36:37.194Z,100598.22
2023-04-15T02:39:04.360Z,100599.97
2023-04-15T02:41:31.828Z,100605.16
2023-04-15T02:43:58.992Z,100610.34
2023-04-15T02:46:27.480Z,100612.06
2023-04-15T02:48:54.550Z,100611.19
2023-04-15T02:51:22.874Z,100618.09
2023-04-15T02:53:51.946Z,100618.09
2023-04-15T02:56:19.848Z,100617.22
2023-04-15T02:58:46.799Z,100625.88
2023-04-15T03:01:13.979Z,100625.88
2023-04-15T03:03:41.448Z,100627.59
2023-04-15T03:06:09.182Z,100624.13
2023-04-15T03:08:36.545Z,100633.66
2023-04-15T03:11:03.989Z,100634.53
2023-04-15T03:13:30.920Z,100638.88
2023-04-15T03:15:57.748Z,100639.72
2023-04-15T03:18:24.606Z,100642.31
2023-04-15T03:20:51.739Z,100635.38
2023-04-15T03:23:18.422Z,100642.31
2023-04-15T03:25:45.405Z,100639.72
2023-04-15T03:28:12.452Z,100641.41
2023-04-15T03:30:39.386Z,100639.69
2023-04-15T03:33:07.073Z,100639.69
2023-04-15T03:35:34.475Z,100648.31
2023-04-15T03:38:01.944Z,100632.75
2023-04-15T03:40:29.017Z,100644.88
2023-04-15T03:42:56.269Z,100643.97
2023-04-15T03:45:23.638Z,100653.50
2023-04-15T03:47:51.583Z,100652.63
2023-04-15T03:50:18.617Z,100656.94
2023-04-15T03:52:46.811Z,100654.34
2023-04-15T03:55:15.408Z,100664.72
2023-04-15T03:57:43.977Z,100665.56
2023-04-15T04:00:13.017Z,100669.03
2023-04-15T04:02:41.177Z,100675.09
2023-04-15T04:05:08.856Z,100688.03
2023-04-15T04:07:35.549Z,100684.59
2023-04-15T04:10:03.794Z,100685.47
2023-04-15T04:12:31.616Z,100682.91
2023-04-15T04:14:59.096Z,100682.88
2023-04-15T04:17:26.174Z,100682.84
2023-04-15T04:19:53.510Z,100689.78
2023-04-15T04:22:24.508Z,100681.94
2023-04-15T04:24:52.732Z,100684.56
2023-04-15T04:27:20.079Z,100688.84
2023-04-15T04:29:47.985Z,100688.00
2023-04-15T04:32:15.443Z,100689.72
2023-04-15T04:34:42.879Z,100700.09
2023-04-15T04:37:11.125Z,100706.13
2023-04-15T04:39:38.348Z,100703.53
2023-04-15T04:42:04.981Z,100708.75
2023-04-15T04:44:31.882Z,100707.00
2023-04-15T04:46:59.090Z,100705.28
2023-04-15T04:49:26.356Z,100710.47
2023-04-15T04:51:53.360Z,100714.78
2023-04-15T04:54:22.340Z,100715.59
2023-04-15T04:56:50.541Z,100714.75
2023-04-15T04:59:19.428Z,100713.00
2023-04-15T05:01:46.676Z,100719.06
2023-04-15T05:04:13.516Z,100725.97
2023-04-15T05:06:40.909Z,100726.84
2023-04-15T05:09:08.027Z,100728.56
2023-04-15T05:11:35.035Z,100731.16
2023-04-15T05:14:02.414Z,100731.16
2023-04-15T05:16:29.529Z,100734.63
2023-04-15T05:18:56.686Z,100742.41
2023-04-15T05:21:23.843Z,100738.09
2023-04-15T05:23:51.236Z,100744.13
2023-04-15T05:26:18.306Z,100748.47
2023-04-15T05:28:45.219Z,100751.06
2023-04-15T05:31:12.034Z,100748.50
2023-04-15T05:33:39.324Z,100754.56
2023-04-15T05:36:06.627Z,100756.31
2023-04-15T05:38:33.849Z,100758.91
2023-04-15T05:41:01.324Z,100762.38
2023-04-15T05:43:28.614Z,100772.78
2023-04-15T05:45:55.748Z,100764.13
2023-04-15T05:48:23.786Z,100769.34
2023-04-15T05:50:51.085Z,100774.59
2023-04-15T05:53:17.947Z,100781.50
2023-04-15T05:55:44.731Z,100781.53
2023-04-15T05:58:12.591Z,100785.03
2023-04-15T06:00:40.410Z,100784.19
2023-04-15T06:03:07.869Z,100788.53
2023-04-15T06:05:34.830Z,100793.75
2023-04-15T06:08:02.641Z,100800.72
2023-04-15T06:10:29.739Z,100799.91
2023-04-15T06:12:56.837Z,100816.38
2023-04-15T06:15:24.119Z,100813.84
2023-04-15T06:17:51.403Z,100821.66
2023-04-15T06:20:18.936Z,100818.22
2023-04-15T06:22:45.662Z,100819.13
2023-04-15T06:25:13.271Z,100826.09
2023-04-15T06:27:41.397Z,100822.66
2023-04-15T06:30:09.082Z,100826.19
2023-04-15T06:32:35.867Z,100831.41
2023-04-15T06:35:02.848Z,100838.38
2023-04-15T06:37:29.868Z,100837.50
2023-04-15T06:39:56.971Z,100828.88
2023-04-15T06:42:24.137Z,100838.41
2023-04-15T06:44:51.244Z,100834.06
2023-04-15T06:47:18.240Z,100840.16
2023-04-15T06:49:45.268Z,100837.53
2023-04-15T06:52:12.714Z,100842.72
2023-04-15T06:54:40.113Z,100846.19
2023-04-15T06:57:07.813Z,100849.66
2023-04-15T06:59:35.005Z,100855.72
2023-04-15T07:02:02.147Z,100852.19
2023-04-15T07:04:29.439Z,100853.03
2023-04-15T07:06:56.967Z,100850.38
2023-04-15T07:09:24.749Z,100863.34
2023-04-15T07:11:52.561Z,100858.16
2023-04-15T07:14:19.389Z,100870.28
2023-04-15T07:16:47.256Z,100868.53
2023-04-15T07:19:14.109Z,100863.28
2023-04-15T07:21:42.009Z,100870.19
2023-04-15T07:24:10.535Z,100882.31
2023-04-15T07:26:37.487Z,100883.97
2023-04-15T07:29:06.081Z,100883.94
2023-04-15T07:31:33.893Z,100879.59
2023-04-15T07:34:00.713Z,100876.06
2023-04-15T07:36:29.108Z,100891.69
2023-04-15T07:38:56.238Z,100892.56
2023-04-15T07:41:23.958Z,100895.97
2023-04-15T07:43:51.485Z,100890.75
2023-04-15T07:46:18.341Z,100896.00
2023-04-15T07:48:45.478Z,100895.91
2023-04-15T07:51:13.065Z,100899.34
2023-04-15T07:53:39.946Z,100894.94
2023-04-15T07:56:06.794Z,100901.03
2023-04-15T07:58:34.049Z,100895.84
2023-04-15T08:01:01.984Z,100896.69
2023-04-15T08:03:29.533Z,100899.22
2023-04-15T08:05:56.490Z,100906.09
2023-04-15T08:08:25.524Z,100902.50
2023-04-15T08:10:52.909Z,100912.88
2023-04-15T08:13:20.813Z,100906.75
2023-04-15T08:16:13.380Z,100917.97
2023-04-15T08:18:40.848Z,100916.19
2023-04-15T08:21:08.507Z,100919.53
2023-04-15T08:23:35.425Z,100923.03
2023-04-15T08:26:03.352Z,100922.84
2023-04-15T08:28:30.645Z,100924.47
2023-04-15T08:30:57.546Z,100919.13
2023-04-15T08:33:24.327Z,100922.63
2023-04-15T08:35:51.594Z,100934.16
2023-04-15T08:38:19.004Z,100928.06
2023-04-15T08:40:46.723Z,100940.06
2023-04-15T08:43:37.037Z,100933.09
2023-04-15T08:46:04.415Z,100933.09
2023-04-15T08:48:34.737Z,100936.53
2023-04-15T08:51:02.369Z,100952.19
2023-04-15T08:53:30.762Z,100944.34
2023-04-15T08:56:00.198Z,100946.97
2023-04-15T08:58:27.617Z,100952.13
2023-04-15T09:00:55.097Z,100951.25
2023-04-15T09:03:23.779Z,100939.00
2023-04-15T09:05:52.730Z,100940.59
2023-04-15T09:08:20.513Z,100941.38
2023-04-15T09:10:47.441Z,100944.03
2023-04-15T09:13:14.379Z,100953.56
2023-04-15T09:15:41.516Z,100952.50
2023-04-15T09:18:11.478Z,100953.38
2023-04-15T09:20:42.636Z,100958.66
2023-04-15T09:23:15.544Z,100963.84
2023-04-15T09:25:43.102Z,100967.47
2023-04-15T09:28:11.220Z,100964.97
2023-04-15T09:30:38.447Z,100973.75
2023-04-15T09:33:08.363Z,100974.53
2023-04-15T09:35:36.935Z,100982.38
2023-04-15T09:38:07.323Z,100990.06
2023-04-15T09:40:39.205Z,100983.19
2023-04-15T09:43:07.390Z,100995.41
2023-04-15T09:45:35.910Z,100992.78
2023-04-15T09:48:21.118Z,100999.84
2023-04-15T09:50:49.663Z,100998.75
2023-04-15T09:53:19.087Z,101002.09
2023-04-15T09:55:51.301Z,101004.53
2023-04-15T09:58:19.906Z,101005.31
2023-04-15T10:00:51.568Z,101010.41
2023-04-15T10:03:24.491Z,101006.63
2023-04-15T10:05:54.354Z,101012.44
2023-04-15T10:08:23.967Z,101018.72
2023-04-15T10:10:54.972Z,101009.31
2023-04-15T10:13:25.401Z,101022.25
2023-04-15T10:15:58.296Z,101026.13
2023-04-15T10:18:27.202Z,101031.56
2023-04-15T10:20:55.591Z,101030.53
2023-04-15T10:23:24.508Z,101022.41
2023-04-15T10:25:54.571Z,101038.00
2023-04-15T10:28:25.499Z,101032.59
2023-04-15T10:30:53.939Z,101035.97
2023-04-15T10:33:24.528Z,101026.22
2023-04-15T10:35:54.547Z,101031.41
2023-04-15T10:38:44.218Z,101038.50
2023-04-15T10:41:29.915Z,101034.03
2023-04-15T10:44:01.920Z,101040.81
2023-04-15T10:46:44.151Z,101042.19
2023-04-15T10:49:13.582Z,101041.41
2023-04-15T10:51:46.101Z,101047.66
2023-04-15T10:54:25.311Z,101054.91
2023-04-15T10:57:08.889Z,101051.50
2023-04-15T10:59:58.236Z,101059.44
2023-04-15T11:02:45.922Z,101062.88
2023-04-15T11:05:14.763Z,101060.41
2023-04-15T11:07:46.631Z,101058.97
2023-04-15T11:10:26.011Z,101059.28
2023-04-15T11:13:03.380Z,101058.41
2023-04-15T11:15:38.862Z,101066.31
2023-04-15T11:18:20.997Z,101063.66
2023-04-15T11:20:59.651Z,101063.56
2023-04-15T11:23:40.654Z,101069.72
2023-04-15T11:26:15.501Z,101067.75
2023-04-15T11:28:46.279Z,101068.06
2023-04-15T11:31:17.868Z,101081.81
2023-04-15T11:33:55.537Z,101081.75
2023-04-15T11:36:27.750Z,101084.44
2023-04-15T11:38:55.133Z,101081.75
2023-04-15T11:41:23.305Z,101083.28
2023-04-15T11:43:51.380Z,101088.13
2023-04-15T11:46:19.243Z,101091.75
2023-04-15T11:48:47.360Z,101083.88
2023-04-15T11:51:15.064Z,101103.34
2023-04-15T11:53:45.952Z,101087.84
2023-04-15T11:56:21.975Z,101095.75
2023-04-15T11:58:53.365Z,101102.56
2023-04-15T12:01:20.391Z,101104.25
2023-04-15T12:03:49.536Z,101102.22
2023-04-15T12:06:22.419Z,101105.66
2023-04-15T12:09:08.059Z,101111.75
2023-04-15T12:11:58.642Z,101106.88
2023-04-15T12:14:28.401Z,101124.75
2023-04-15T12:17:00.091Z,101118.06
2023-04-15T12:19:37.487Z,101125.00
2023-04-15T12:22:12.789Z,101125.88
2023-04-15T12:24:40.371Z,101131.06
2023-04-15T12:27:09.022Z,101129.16
2023-04-15T12:29:37.272Z,101132.69
2023-04-15T12:32:07.777Z,101131.91
2023-04-15T12:34:43.288Z,101142.47
2023-04-15T12:37:11.836Z,101144.88
2023-04-15T12:39:41.234Z,101141.63
2023-04-15T12:42:13.254Z,101141.63
2023-04-15T12:44:40.550Z,101159.03
2023-04-15T12:47:08.737Z,101156.25
2023-04-15T12:49:35.709Z,101165.72
2023-04-15T12:52:03.880Z,101163.66
2023-04-15T12:54:32.060Z,101171.63
2023-04-15T12:56:59.879Z,101177.63
2023-04-15T12:59:26.962Z,101169.72
2023-04-15T13:01:54.416Z,101172.47
2023-04-15T13:04:22.417Z,101178.69
2023-04-15T13:06:50.473Z,101187.72
2023-04-15T13:09:18.328Z,101195.69
2023-04-15T13:11:45.283Z,101196.78
2023-04-15T13:14:13.194Z,101189.91
2023-04-15T13:16:40.976Z,101199.66
2023-04-15T13:19:08.118Z,101218.00
2023-04-15T13:21:36.403Z,101211.88
2023-04-15T13:24:05.178Z,101216.16
2023-04-15T13:26:32.873Z,101210.00
2023-04-15T13:29:01.376Z,101216.94
2023-04-15T13:31:28.821Z,101212.53
2023-04-15T13:33:57.315Z,101223.91
2023-04-15T13:36:24.420Z,101222.22
2023-04-15T13:38:51.715Z,101226.59
2023-04-15T13:41:20.099Z,101233.69
2023-04-15T13:43:47.278Z,101239.78
2023-04-15T13:46:14.769Z,101246.00
2023-04-15T13:48:42.292Z,101245.28
2023-04-15T13:51:10.193Z,101245.31
2023-04-15T13:53:38.251Z,101247.06
2023-04-15T13:56:08.427Z,101248.00
2023-04-15T13:58:36.691Z,101258.44
2023-04-15T14:01:05.712Z,101252.28
2023-04-15T14:03:34.742Z,101265.28
2023-04-15T14:06:02.134Z,101261.78
2023-04-15T14:08:30.015Z,101260.13
2023-04-15T14:10:57.836Z,101263.59
2023-04-15T14:13:25.261Z,101270.56
2023-04-15T14:15:54.533Z,101276.66
2023-04-15T14:18:21.859Z,101269.69
2023-04-15T14:20:49.114Z,101278.44
2023-04-15T14:23:16.162Z,101278.44
2023-04-15T14:25:45.061Z,101285.47
2023-04-15T14:28:14.086Z,101278.47
2023-04-15T14:30:40.882Z,101283.66
2023-04-15T14:33:08.499Z,101284.59
2023-04-15T14:35:35.884Z,101292.47
2023-04-15T14:38:02.843Z,101289.03
2023-04-15T14:40:29.531Z,101291.66
2023-04-15T14:42:56.513Z,101294.28
2023-04-15T14:45:24.273Z,101292.59
2023-04-15T14:47:53.071Z,101300.44
2023-04-15T14:50:20.399Z,101301.25
2023-04-15T14:52:48.628Z,101297.72
2023-04-15T14:55:15.609Z,101306.47
2023-04-15T14:57:42.995Z,101315.22
2023-04-15T15:00:13.789Z,101316.06
2023-04-15T15:02:43.148Z,101321.31
2023-04-15T15:05:10.759Z,101332.69
2023-04-15T15:07:39.410Z,101334.41
2023-04-15T15:10:07.414Z,101330.06
2023-04-15T15:12:35.025Z,101329.13
2023-04-15T15:15:09.550Z,101325.63
2023-04-15T15:17:40.230Z,101346.63
2023-04-15T15:20:07.798Z,101337.94
2023-04-15T15:22:35.069Z,101345.78
2023-04-15T15:25:02.649Z,101346.69
2023-04-15T15:27:30.126Z,101353.72
2023-04-15T15:29:57.279Z,101348.47
2023-04-15T15:32:24.874Z,101355.44
2023-04-15T15:34:52.557Z,101351.97
2023-04-15T15:37:19.423Z,101347.63
2023-04-15T15:39:46.598Z,101357.22
2023-04-15T15:42:13.716Z,101365.06
2023-04-15T15:44:40.879Z,101365.94
2023-04-15T15:47:07.896Z,101364.22
2023-04-15T15:49:36.116Z,101363.31
2023-04-15T15:52:02.873Z,101375.53
2023-04-15T15:54:30.115Z,101371.19
2023-04-15T15:56:57.517Z,101381.63
2023-04-15T15:59:27.798Z,101381.63
2023-04-15T16:01:55.843Z,101382.47
2023-04-15T16:04:23.575Z,101388.56
2023-04-15T16:06:50.720Z,101392.06
2023-04-15T16:09:18.609Z,101400.75
2023-04-15T16:11:45.794Z,101403.31
2023-04-15T16:14:14.208Z,101401.56
2023-04-15T16:16:41.403Z,101403.28
2023-04-15T16:19:09.356Z,101407.63
2023-04-15T16:21:36.593Z,101407.63
2023-04-15T16:24:03.405Z,101405.84
2023-04-15T16:26:30.708Z,101411.06
2023-04-15T16:28:57.566Z,101409.31
2023-04-15T16:31:25.086Z,101418.88
2023-04-15T16:33:52.667Z,101412.81
2023-04-15T16:36:21.236Z,101418.03
2023-04-15T16:38:48.696Z,101418.88
2023-04-15T16:41:16.478Z,101424.97
2023-04-15T16:43:43.184Z,101430.16
2023-04-15T16:46:10.323Z,101437.09
2023-04-15T16:48:37.201Z,101440.59
2023-04-15T16:51:04.743Z,101440.56
2023-04-15T16:53:32.110Z,101441.41
2023-04-15T16:55:59.181Z,101444.91
2023-04-15T16:58:27.689Z,101449.22
2023-04-15T17:00:55.999Z,101445.72
2023-04-15T17:03:23.566Z,101444.88
2023-04-15T17:05:50.993Z,101448.28
2023-04-15T17:08:18.194Z,101458.66
2023-04-15T17:10:45.611Z,101463.00
2023-04-15T17:13:13.706Z,101464.72
2023-04-15T17:15:40.896Z,101469.91
2023-04-15T17:18:08.745Z,101471.63
2023-04-15T17:20:35.860Z,101469.94
2023-04-15T17:23:03.947Z,101476.91
2023-04-15T17:25:30.856Z,101471.72
2023-04-15T17:27:57.882Z,101479.50
2023-04-15T17:30:25.015Z,101485.56
2023-04-15T17:32:53.628Z,101487.28
2023-04-15T17:35:20.936Z,101478.63
2023-04-15T17:37:48.123Z,101485.59
2023-04-15T17:40:15.158Z,101483.91
2023-04-15T17:42:42.743Z,101494.28
2023-04-15T17:45:10.796Z,101492.56
2023-04-15T17:47:37.974Z,101502.09
2023-04-15T17:50:07.099Z,101511.66
2023-04-15T17:52:34.406Z,101516.84
2023-04-15T17:55:01.444Z,101516.88
2023-04-15T17:57:28.386Z,101515.00
2023-04-15T17:59:55.455Z,101512.41
2023-04-15T18:02:23.712Z,101515.03
2023-04-15T18:04:50.997Z,101534.97
2023-04-15T18:07:18.152Z,101539.28
2023-04-15T18:09:45.822Z,101536.56
2023-04-15T18:12:12.793Z,101540.97
2023-04-15T18:14:40.085Z,101537.34
2023-04-15T18:17:07.400Z,101535.56
2023-04-15T18:19:35.552Z,101551.13
2023-04-15T18:22:06.919Z,101543.28
2023-04-15T18:24:33.941Z,101551.09
2023-04-15T18:27:02.379Z,101552.91
2023-04-15T18:29:31.281Z,101556.31
2023-04-15T18:32:03.557Z,101554.56
2023-04-15T18:34:30.675Z,101564.06
2023-04-15T18:36:58.633Z,101565.81
2023-04-15T18:39:26.957Z,101577.06
2023-04-15T18:41:56.591Z,101574.50
2023-04-15T18:44:23.562Z,101584.91
2023-04-15T18:46:50.493Z,101592.69
2023-04-15T18:49:17.540Z,101590.97
2023-04-15T18:51:44.726Z,101578.84
2023-04-15T18:54:12.196Z,101585.75
2023-04-15T18:56:39.837Z,101595.31
2023-04-15T18:59:23.112Z,101601.28
2023-04-15T19:01:54.204Z,101609.06
2023-04-15T19:04:21.181Z,101609.97
2023-04-15T19:06:48.363Z,101614.28
2023-04-15T19:09:16.809Z,101620.31
2023-04-15T19:11:44.081Z,101620.34
2023-04-15T19:14:11.672Z,101631.59
2023-04-15T19:16:39.684Z,101627.19
2023-04-15T19:19:07.017Z,101628.88
2023-04-15T19:21:34.245Z,101632.31
2023-04-15T19:24:02.182Z,101635.75
2023-04-15T19:26:29.453Z,101640.09
2023-04-15T19:28:58.932Z,101649.66
2023-04-15T19:31:26.352Z,101656.56
2023-04-15T19:33:53.870Z,101656.59
2023-04-15T19:36:21.336Z,101657.50
2023-04-15T19:38:48.841Z,101654.91
2023-04-15T19:41:15.933Z,101654.00
2023-04-15T19:43:43.854Z,101652.22
2023-04-15T19:46:13.246Z,101660.00
2023-04-15T19:48:41.244Z,101660.84
2023-04-15T19:51:08.045Z,101673.84
2023-04-15T19:53:36.123Z,101670.44
2023-04-15T19:56:03.405Z,101671.25
2023-04-15T19:58:34.231Z,101675.66
2023-04-15T20:01:02.277Z,101672.09
2023-04-15T20:03:29.374Z,101672.06
2023-04-15T20:05:57.214Z,101682.47
2023-04-15T20:08:24.965Z,101681.59
2023-04-15T20:10:52.099Z,101677.31
2023-04-15T20:13:18.878Z,101678.09
2023-04-15T20:15:45.974Z,101680.63
2023-04-15T20:18:13.190Z,101685.06
2023-04-15T20:20:40.506Z,101685.91
2023-04-15T20:23:07.233Z,101679.88
2023-04-15T20:25:34.126Z,101692.91
2023-04-15T20:28:01.498Z,101694.63
2023-04-15T20:30:29.344Z,101691.91
2023-04-15T20:32:56.286Z,101689.34
2023-04-15T20:35:23.175Z,101684.91
2023-04-15T20:37:50.613Z,101696.28
2023-04-15T20:40:17.805Z,101678.09
2023-04-15T20:42:45.669Z,101683.25
2023-04-15T20:45:13.625Z,101680.50
2023-04-15T20:47:42.278Z,101691.84
2023-04-15T20:50:09.768Z,101689.16
2023-04-15T20:52:36.568Z,101694.47
2023-04-15T20:55:04.304Z,101705.69
2023-04-15T20:57:31.746Z,101706.56
2023-04-15T20:59:58.769Z,101697.91
2023-04-15T21:02:26.423Z,101698.84
2023-04-15T21:04:53.819Z,101692.75
2023-04-15T21:07:20.751Z,101698.03
2023-04-15T21:09:47.717Z,101691.88
2023-04-15T21:12:15.737Z,101684.91
2023-04-15T21:14:43.057Z,101701.41
2023-04-15T21:17:11.344Z,101699.69
2023-04-15T21:19:38.789Z,101704.88
2023-04-15T21:22:05.787Z,101708.38
2023-04-15T21:24:32.951Z,101703.06
2023-04-15T21:27:01.886Z,101712.63
2023-04-15T21:29:29.177Z,101720.53
2023-04-15T21:31:56.524Z,101711.84
2023-04-15T21:34:23.536Z,101722.50
2023-04-15T21:36:50.729Z,101715.38
2023-04-15T21:39:18.735Z,101722.34
2023-04-15T21:41:46.109Z,101728.47
2023-04-15T21:44:15.120Z,101729.31
2023-04-15T21:46:46.145Z,101729.28
2023-04-15T21:49:13.871Z,101743.09
2023-04-15T21:51:40.991Z,101739.56
2023-04-15T21:54:08.639Z,101743.97
2023-04-15T21:56:35.530Z,101749.00
2023-04-15T21:59:03.214Z,101748.19
2023-04-15T22:01:30.468Z,101747.28
2023-04-15T22:03:57.534Z,101749.97
2023-04-15T22:06:25.243Z,101753.41
2023-04-15T22:08:56.968Z,101746.53
2023-04-15T22:11:28.792Z,101751.81
2023-04-15T22:13:59.479Z,101744.84
2023-04-15T22:16:27.244Z,101754.38
2023-04-15T22:18:54.919Z,101757.03
2023-04-15T22:21:22.465Z,101758.66
2023-04-15T22:23:49.630Z,101757.78
2023-04-15T22:26:16.453Z,101764.88
2023-04-15T22:28:43.604Z,101766.50
2023-04-15T22:31:10.764Z,101753.50
2023-04-15T22:33:37.427Z,101756.09
2023-04-15T22:36:04.695Z,101758.69
2023-04-15T22:38:31.943Z,101762.19
2023-04-15T22:40:59.153Z,101776.91
2023-04-15T22:43:27.390Z,101768.31
2023-04-15T22:45:55.012Z,101778.59
2023-04-15T22:48:22.663Z,101776.13
2023-04-15T22:50:49.904Z,101780.44
2023-04-15T22:53:17.772Z,101786.53
2023-04-15T22:55:47.346Z,101775.28
2023-04-15T22:58:15.478Z,101777.88
2023-04-15T23:00:42.618Z,101784.88
2023-04-15T23:03:09.733Z,101786.56
2023-04-15T23:05:37.121Z,101786.66
2023-04-15T23:08:04.621Z,101791.84
2023-04-15T23:10:31.996Z,101789.22
2023-04-15T23:12:59.269Z,101791.88
2023-04-15T23:15:27.137Z,101788.38
2023-04-15T23:17:54.261Z,101793.59
2023-04-15T23:20:21.264Z,101798.84
2023-04-15T23:22:47.967Z,101798.94
2023-04-15T23:25:14.934Z,101799.72
2023-04-15T23:27:41.748Z,101793.84
2023-04-15T23:30:08.809Z,101805.84
2023-04-15T23:32:35.891Z,101798.00
2023-04-15T23:35:04.090Z,101811.06
2023-04-15T23:37:31.696Z,101813.72
2023-04-15T23:39:58.855Z,101818.09
2023-04-15T23:42:25.947Z,101805.84
2023-04-15T23:44:53.489Z,101808.41
2023-04-15T23:47:21.554Z,101813.59
2023-04-15T23:49:48.340Z,101811.03
2023-04-15T23:52:16.197Z,101810.97
2023-04-15T23:54:43.942Z,101809.22
2023-04-15T23:57:10.901Z,101815.34
2023-04-15T23:59:37.922Z,101811.84
